sensor_id;sensor_type;location;lat;lon;timestamp;pressure;altitude;pressure_sealevel;temperature;humidity
13420;BME280;6781;58.440;15.470;2023-04-22T00:00:48;101000.94;;;6.96;100.00
13420;BME280;6781;58.440;15.470;2023-04-22T00:03:15;100864.88;;;5.97;100.00
13420;BME280;6781;58.440;15.470;2023-04-22T00:05:45;100907.66;;;6.45;100.00
13420;BME280;6781;58.440;15.470;2023-04-22T00:08:12;101054.44;;;7.22;100.00
13420;BME280;6781;58.440;15.470;2023-04-22T00:10:40;100965.09;;;6.77;100.00
13420;BME280;6781;58.440;15.470;2023-04-22T00:13:07;100918.22;;;6.40;100.00
13420;BME280;6781;58.440;15.470;2023-04-22T00:15:34;100975.22;;;6.80;100.00
13420;BME280;6781;58.440;15.470;2023-04-22T00:18:13;100958.00;;;6.50;100.00
13420;BME280;6781;58.440;15.470;2023-04-22T00:20:45;101075.41;;;7.16;100.00
13420;BME280;6781;58.440;15.470;2023-04-22T00:23:12;101066.13;;;6.98;100.00
13420;BME280;6781;58.440;15.470;2023-04-22T00:25:42;100878.53;;;5.66;100.00
13420;BME280;6781;58.440;15.470;2023-04-22T00:28:10;100834.72;;;5.36;100.00
13420;BME280;6781;58.440;15.470;2023-04-22T00:30:37;100871.31;;;5.56;100.00
13420;BME280;6781;58.440;15.470;2023-04-22T00:33:04;101059.03;;;6.87;100.00
13420;BME280;6781;58.440;15.470;2023-04-22T00:35:31;100846.84;;;5.65;100.00
13420;BME280;6781;58.440;15.470;2023-04-22T00:38:02;100948.75;;;6.01;100.00
13420;BME280;6781;58.440;15.470;2023-04-22T00:40:29;101033.94;;;6.75;100.00
13420;BME280;6781;58.440;15.470;2023-04-22T00:43:08;101059.53;;;6.78;100.00
13420;BME280;6781;58.440;15.470;2023-04-22T00:45:38;100953.72;;;6.19;100.00
13420;BME280;6781;58.440;15.470;2023-04-22T00:48:07;100797.91;;;5.19;100.00
13420;BME280;6781;58.440;15.470;2023-04-22T00:50:37;101072.19;;;6.67;100.00
13420;BME280;6781;58.440;15.470;2023-04-22T00:53:05;100887.69;;;5.71;100.00
13420;BME280;6781;58.440;15.470;2023-04-22T00:55:35;100779.06;;;5.03;100.00
13420;BME280;6781;58.440;15.470;2023-04-22T00:58:07;101027.50;;;6.36;100.00
13420;BME280;6781;58.440;15.470;2023-04-22T01:00:35;100883.78;;;5.64;100.00
13420;BME280;6781;58.440;15.470;2023-04-22T01:03:01;100955.53;;;6.02;100.00
13420;BME280;6781;58.440;15.470;2023-04-22T01:05:30;100901.19;;;5.59;100.00
13420;BME280;6781;58.440;15.470;2023-04-22T01:07:57;100916.16;;;5.68;100.00
13420;BME280;6781;58.440;15.470;2023-04-22T01:10:26;100895.56;;;5.52;100.00
13420;BME280;6781;58.440;15.470;2023-04-22T01:12:53;100796.63;;;4.95;100.00
13420;BME280;6781;58.440;15.470;2023-04-22T01:15:20;101096.53;;;6.45;100.00
13420;BME280;6781;58.440;15.470;2023-04-22T01:17:49;100880.09;;;5.37;100.00
13420;BME280;6781;58.440;15.470;2023-04-22T01:20:17;100789.16;;;4.57;100.00
13420;BME280;6781;58.440;15.470;2023-04-22T01:22:45;100985.03;;;5.63;100.00
13420;BME280;6781;58.440;15.470;2023-04-22T01:25:16;100894.03;;;5.17;100.00
13420;BME280;6781;58.440;15.470;2023-04-22T01:27:43;100888.69;;;5.04;100.00
13420;BME280;6781;58.440;15.470;2023-04-22T01:30:13;101066.84;;;6.07;100.00
13420;BME280;6781;58.440;15.470;2023-04-22T01:32:41;100854.69;;;4.82;100.00
13420;BME280;6781;58.440;15.470;2023-04-22T01:35:09;100786.69;;;4.39;100.00
13420;BME280;6781;58.440;15.470;2023-04-22T01:37:36;100789.34;;;4.37;100.00
13420;BME280;6781;58.440;15.470;2023-04-22T01:40:05;101048.56;;;5.96;100.00
13420;BME280;6781;58.440;15.470;2023-04-22T01:42:35;101015.75;;;5.66;100.00
13420;BME280;6781;58.440;15.470;2023-04-22T01:45:03;100885.47;;;4.83;100.00
13420;BME280;6781;58.440;15.470;2023-04-22T01:47:30;100788.13;;;4.27;100.00
13420;BME280;6781;58.440;15.470;2023-04-22T01:49:58;101059.75;;;5.77;100.00
13420;BME280;6781;58.440;15.470;2023-04-22T01:52:26;101050.59;;;5.89;100.00
13420;BME280;6781;58.440;15.470;2023-04-22T01:54:53;100892.03;;;4.72;100.00
13420;BME280;6781;58.440;15.470;2023-04-22T01:57:21;100954.38;;;5.26;100.00
13420;BME280;6781;58.440;15.470;2023-04-22T01:59:52;100878.50;;;4.85;100.00
13420;BME280;6781;58.440;15.470;2023-04-22T02:02:19;100774.47;;;4.27;100.00
13420;BME280;6781;58.440;15.470;2023-04-22T02:07:21;101050.78;;;5.51;100.00
13420;BME280;6781;58.440;15.470;2023-04-22T02:09:49;100790.38;;;3.81;100.00
13420;BME280;6781;58.440;15.470;2023-04-22T02:12:16;100890.50;;;4.33;100.00
13420;BME280;6781;58.440;15.470;2023-04-22T02:14:43;101049.66;;;5.57;100.00
13420;BME280;6781;58.440;15.470;2023-04-22T02:17:12;100861.50;;;4.31;100.00
13420;BME280;6781;58.440;15.470;2023-04-22T02:19:42;101022.59;;;5.33;100.00
13420;BME280;6781;58.440;15.470;2023-04-22T02:22:09;100963.97;;;5.06;100.00
13420;BME280;6781;58.440;15.470;2023-04-22T02:24:37;100774.63;;;3.53;100.00
13420;BME280;6781;58.440;15.470;2023-04-22T02:27:04;100889.03;;;4.10;100.00
13420;BME280;6781;58.440;15.470;2023-04-22T02:29:33;101033.75;;;5.16;100.00
13420;BME280;6781;58.440;15.470;2023-04-22T02:32:00;100874.75;;;4.05;100.00
13420;BME280;6781;58.440;15.470;2023-04-22T02:34:29;100967.44;;;4.71;100.00
13420;BME280;6781;58.440;15.470;2023-04-22T02:36:57;100708.81;;;3.17;100.00
13420;BME280;6781;58.440;15.470;2023-04-22T02:39:24;100965.78;;;4.87;100.00
13420;BME280;6781;58.440;15.470;2023-04-22T02:41:51;100814.88;;;3.87;100.00
13420;BME280;6781;58.440;15.470;2023-04-22T02:44:19;100852.59;;;4.21;100.00
13420;BME280;6781;58.440;15.470;2023-04-22T02:46:46;101045.13;;;5.28;100.00
13420;BME280;6781;58.440;15.470;2023-04-22T02:49:13;100960.88;;;4.65;100.00
13420;BME280;6781;58.440;15.470;2023-04-22T02:51:41;101008.03;;;5.16;100.00
13420;BME280;6781;58.440;15.470;2023-04-22T02:54:09;100880.53;;;4.27;100.00
13420;BME280;6781;58.440;15.470;2023-04-22T02:56:36;100751.47;;;3.37;100.00
13420;BME280;6781;58.440;15.470;2023-04-22T02:59:03;100836.50;;;4.00;100.00
13420;BME280;6781;58.440;15.470;2023-04-22T03:01:31;100975.91;;;4.90;100.00
13420;BME280;6781;58.440;15.470;2023-04-22T03:03:58;100997.59;;;5.02;100.00
13420;BME280;6781;58.440;15.470;2023-04-22T03:06:27;100855.91;;;4.06;100.00
13420;BME280;6781;58.440;15.470;2023-04-22T03:08:57;101019.75;;;4.87;100.00
13420;BME280;6781;58.440;15.470;2023-04-22T03:11:24;100756.31;;;3.24;100.00
13420;BME280;6781;58.440;15.470;2023-04-22T03:13:57;101025.88;;;4.84;100.00
13420;BME280;6781;58.440;15.470;2023-04-22T03:16:24;100741.22;;;3.00;100.00
13420;BME280;6781;58.440;15.470;2023-04-22T03:18:51;100892.09;;;4.00;100.00
13420;BME280;6781;58.440;15.470;2023-04-22T03:21:19;100902.66;;;3.93;100.00
13420;BME280;6781;58.440;15.470;2023-04-22T03:23:46;100685.50;;;2.48;100.00
13420;BME280;6781;58.440;15.470;2023-04-22T03:26:14;100848.34;;;3.48;100.00
13420;BME280;6781;58.440;15.470;2023-04-22T03:28:41;100855.00;;;3.14;100.00
13420;BME280;6781;58.440;15.470;2023-04-22T03:31:09;100913.19;;;3.87;100.00
13420;BME280;6781;58.440;15.470;2023-04-22T03:33:36;100923.75;;;3.81;100.00
13420;BME280;6781;58.440;15.470;2023-04-22T03:36:04;101071.75;;;4.37;100.00
13420;BME280;6781;58.440;15.470;2023-04-22T03:38:36;100916.97;;;3.43;100.00
13420;BME280;6781;58.440;15.470;2023-04-22T03:41:03;101058.78;;;4.21;100.00
13420;BME280;6781;58.440;15.470;2023-04-22T03:43:32;100755.38;;;2.50;100.00
13420;BME280;6781;58.440;15.470;2023-04-22T03:46:02;100912.22;;;3.52;100.00
13420;BME280;6781;58.440;15.470;2023-04-22T03:48:29;101033.78;;;4.25;100.00
13420;BME280;6781;58.440;15.470;2023-04-22T03:51:00;100842.47;;;3.08;100.00
13420;BME280;6781;58.440;15.470;2023-04-22T03:53:28;100964.50;;;3.87;100.00
13420;BME280;6781;58.440;15.470;2023-04-22T03:55:55;100940.59;;;3.87;100.00
13420;BME280;6781;58.440;15.470;2023-04-22T03:58:22;100906.72;;;3.43;100.00
13420;BME280;6781;58.440;15.470;2023-04-22T04:00:51;100910.97;;;3.61;100.00
13420;BME280;6781;58.440;15.470;2023-04-22T04:03:18;100872.63;;;3.41;100.00
13420;BME280;6781;58.440;15.470;2023-04-22T04:05:45;101004.44;;;4.31;100.00
13420;BME280;6781;58.440;15.470;2023-04-22T04:08:12;101042.75;;;4.35;100.00
13420;BME280;6781;58.440;15.470;2023-04-22T04:10:40;100746.66;;;2.54;100.00
13420;BME280;6781;58.440;15.470;2023-04-22T04:13:08;101039.81;;;4.24;100.00
13420;BME280;6781;58.440;15.470;2023-04-22T04:15:35;100946.63;;;3.67;100.00
13420;BME280;6781;58.440;15.470;2023-04-22T04:18:04;100883.94;;;3.16;100.00
13420;BME280;6781;58.440;15.470;2023-04-22T04:20:31;100868.44;;;3.19;100.00
13420;BME280;6781;58.440;15.470;2023-04-22T04:22:58;100965.06;;;3.75;100.00
13420;BME280;6781;58.440;15.470;2023-04-22T04:25:26;100689.91;;;2.06;100.00
13420;BME280;6781;58.440;15.470;2023-04-22T04:27:55;101003.19;;;4.02;100.00
13420;BME280;6781;58.440;15.470;2023-04-22T04:30:22;100766.31;;;2.54;100.00
13420;BME280;6781;58.440;15.470;2023-04-22T04:32:50;100787.16;;;2.65;100.00
13420;BME280;6781;58.440;15.470;2023-04-22T04:35:19;101004.44;;;4.12;100.00
13420;BME280;6781;58.440;15.470;2023-04-22T04:37:46;100941.75;;;3.80;100.00
13420;BME280;6781;58.440;15.470;2023-04-22T04:40:13;100900.72;;;3.61;100.00
13420;BME280;6781;58.440;15.470;2023-04-22T04:42:44;100742.72;;;2.66;100.00
13420;BME280;6781;58.440;15.470;2023-04-22T04:45:42;100779.94;;;2.93;100.00
13420;BME280;6781;58.440;15.470;2023-04-22T04:48:11;100862.91;;;3.47;100.00
13420;BME280;6781;58.440;15.470;2023-04-22T04:51:17;100767.06;;;2.95;100.00
13420;BME280;6781;58.440;15.470;2023-04-22T04:53:44;100900.09;;;3.93;100.00
13420;BME280;6781;58.440;15.470;2023-04-22T04:56:17;100962.97;;;4.21;100.00
13420;BME280;6781;58.440;15.470;2023-04-22T04:58:45;101023.66;;;4.77;100.00
13420;BME280;6781;58.440;15.470;2023-04-22T05:01:17;100941.13;;;4.48;100.00
13420;BME280;6781;58.440;15.470;2023-04-22T05:03:58;100830.72;;;3.78;100.00
13420;BME280;6781;58.440;15.470;2023-04-22T05:06:47;100718.31;;;2.78;100.00
13420;BME280;6781;58.440;15.470;2023-04-22T05:12:14;100875.75;;;4.02;100.00
13420;BME280;6781;58.440;15.470;2023-04-22T05:14:41;100900.50;;;4.39;100.00
13420;BME280;6781;58.440;15.470;2023-04-22T05:17:09;100726.25;;;3.28;100.00
13420;BME280;6781;58.440;15.470;2023-04-22T05:19:36;101011.38;;;5.01;100.00
13420;BME280;6781;58.440;15.470;2023-04-22T05:22:05;101037.75;;;5.04;100.00
13420;BME280;6781;58.440;15.470;2023-04-22T05:24:33;100900.50;;;4.39;100.00
13420;BME280;6781;58.440;15.470;2023-04-22T05:27:00;101056.06;;;5.15;100.00
13420;BME280;6781;58.440;15.470;2023-04-22T05:29:27;100903.50;;;4.47;100.00
13420;BME280;6781;58.440;15.470;2023-04-22T05:31:56;101040.16;;;5.24;100.00
13420;BME280;6781;58.440;15.470;2023-04-22T05:34:23;100920.53;;;4.67;100.00
13420;BME280;6781;58.440;15.470;2023-04-22T05:36:50;100741.16;;;3.73;100.00
13420;BME280;6781;58.440;15.470;2023-04-22T05:39:19;100748.13;;;3.88;100.00
13420;BME280;6781;58.440;15.470;2023-04-22T05:41:46;100831.16;;;4.56;100.00
13420;BME280;6781;58.440;15.470;2023-04-22T05:44:15;100805.56;;;4.38;100.00
13420;BME280;6781;58.440;15.470;2023-04-22T05:46:43;100834.84;;;4.68;100.00
13420;BME280;6781;58.440;15.470;2023-04-22T05:49:12;100888.97;;;5.15;100.00
13420;BME280;6781;58.440;15.470;2023-04-22T05:51:39;100890.88;;;5.28;100.00
13420;BME280;6781;58.440;15.470;2023-04-22T05:54:08;100715.34;;;4.28;100.00
13420;BME280;6781;58.440;15.470;2023-04-22T05:56:38;100817.03;;;4.98;100.00
13420;BME280;6781;58.440;15.470;2023-04-22T05:59:05;100978.13;;;6.12;100.00
13420;BME280;6781;58.440;15.470;2023-04-22T06:01:33;100870.06;;;5.48;100.00
13420;BME280;6781;58.440;15.470;2023-04-22T06:04:04;100991.94;;;6.27;100.00
13420;BME280;6781;58.440;15.470;2023-04-22T06:06:33;100863.88;;;5.68;100.00
13420;BME280;6781;58.440;15.470;2023-04-22T06:09:10;100962.69;;;6.28;100.00
13420;BME280;6781;58.440;15.470;2023-04-22T06:11:38;100877.16;;;5.92;100.00
13420;BME280;6781;58.440;15.470;2023-04-22T06:14:06;100720.22;;;5.14;100.00
13420;BME280;6781;58.440;15.470;2023-04-22T06:16:33;100833.50;;;5.90;100.00
13420;BME280;6781;58.440;15.470;2023-04-22T06:19:00;100809.25;;;5.78;100.00
13420;BME280;6781;58.440;15.470;2023-04-22T06:21:30;100813.31;;;5.98;100.00
13420;BME280;6781;58.440;15.470;2023-04-22T06:23:58;100762.56;;;5.84;100.00
13420;BME280;6781;58.440;15.470;2023-04-22T06:26:26;100936.00;;;6.75;100.00
13420;BME280;6781;58.440;15.470;2023-04-22T06:29:00;100863.66;;;6.34;100.00
13420;BME280;6781;58.440;15.470;2023-04-22T06:31:31;100744.63;;;5.99;100.00
13420;BME280;6781;58.440;15.470;2023-04-22T06:33:58;100842.00;;;6.66;100.00
13420;BME280;6781;58.440;15.470;2023-04-22T06:36:25;100892.94;;;7.19;100.00
13420;BME280;6781;58.440;15.470;2023-04-22T06:38:53;100784.13;;;6.58;100.00
13420;BME280;6781;58.440;15.470;2023-04-22T06:41:20;100834.19;;;7.10;100.00
13420;BME280;6781;58.440;15.470;2023-04-22T06:43:48;100981.63;;;8.16;100.00
13420;BME280;6781;58.440;15.470;2023-04-22T06:46:17;100698.72;;;6.64;100.00
13420;BME280;6781;58.440;15.470;2023-04-22T06:48:45;100739.38;;;6.87;100.00
13420;BME280;6781;58.440;15.470;2023-04-22T06:51:12;100958.53;;;8.55;100.00
13420;BME280;6781;58.440;15.470;2023-04-22T06:53:39;100735.50;;;7.21;100.00
13420;BME280;6781;58.440;15.470;2023-04-22T06:56:06;100666.47;;;7.12;100.00
13420;BME280;6781;58.440;15.470;2023-04-22T06:58:35;100770.91;;;8.00;100.00
13420;BME280;6781;58.440;15.470;2023-04-22T07:01:03;100688.28;;;7.60;100.00
13420;BME280;6781;58.440;15.470;2023-04-22T07:03:31;100844.06;;;8.78;100.00
13420;BME280;6781;58.440;15.470;2023-04-22T07:05:59;100702.81;;;8.01;100.00
13420;BME280;6781;58.440;15.470;2023-04-22T07:08:26;100660.69;;;8.13;100.00
13420;BME280;6781;58.440;15.470;2023-04-22T07:10:59;100672.97;;;8.22;100.00
13420;BME280;6781;58.440;15.470;2023-04-22T07:13:26;100889.25;;;9.85;100.00
13420;BME280;6781;58.440;15.470;2023-04-22T07:15:53;100657.75;;;8.56;100.00
13420;BME280;6781;58.440;15.470;2023-04-22T07:18:21;100654.53;;;8.65;100.00
13420;BME280;6781;58.440;15.470;2023-04-22T07:20:49;100626.88;;;8.78;100.00
13420;BME280;6781;58.440;15.470;2023-04-22T07:23:17;100755.38;;;9.86;100.00
13420;BME280;6781;58.440;15.470;2023-04-22T07:25:45;100614.09;;;9.11;100.00
13420;BME280;6781;58.440;15.470;2023-04-22T07:28:12;100604.03;;;9.20;100.00
13420;BME280;6781;58.440;15.470;2023-04-22T07:30:39;100613.28;;;9.46;100.00
13420;BME280;6781;58.440;15.470;2023-04-22T07:33:07;100607.38;;;9.79;100.00
13420;BME280;6781;58.440;15.470;2023-04-22T07:35:35;100567.66;;;9.67;100.00
13420;BME280;6781;58.440;15.470;2023-04-22T07:38:04;100581.34;;;10.03;100.00
13420;BME280;6781;58.440;15.470;2023-04-22T07:40:31;100607.53;;;10.22;100.00
13420;BME280;6781;58.440;15.470;2023-04-22T07:42:58;100730.03;;;11.14;100.00
13420;BME280;6781;58.440;15.470;2023-04-22T07:45:26;100579.84;;;10.34;100.00
13420;BME280;6781;58.440;15.470;2023-04-22T07:47:53;100799.75;;;11.84;100.00
13420;BME280;6781;58.440;15.470;2023-04-22T07:50:20;100642.50;;;11.04;100.00
13420;BME280;6781;58.440;15.470;2023-04-22T07:52:47;100630.66;;;11.23;100.00
13420;BME280;6781;58.440;15.470;2023-04-22T07:55:16;100674.78;;;11.76;100.00
13420;BME280;6781;58.440;15.470;2023-04-22T07:57:43;100633.53;;;11.61;100.00
13420;BME280;6781;58.440;15.470;2023-04-22T08:00:13;100790.28;;;12.66;100.00
13420;BME280;6781;58.440;15.470;2023-04-22T08:02:40;100613.06;;;11.89;100.00
13420;BME280;6781;58.440;15.470;2023-04-22T08:05:08;100740.91;;;12.85;100.00
13420;BME280;6781;58.440;15.470;2023-04-22T08:07:36;100754.03;;;13.14;100.00
13420;BME280;6781;58.440;15.470;2023-04-22T08:10:04;100534.34;;;12.08;100.00
13420;BME280;6781;58.440;15.470;2023-04-22T08:12:33;100665.19;;;13.08;100.00
13420;BME280;6781;58.440;15.470;2023-04-22T08:15:00;100497.72;;;12.30;100.00
13420;BME280;6781;58.440;15.470;2023-04-22T08:17:27;100717.91;;;13.79;100.00
13420;BME280;6781;58.440;15.470;2023-04-22T08:19:54;100596.41;;;13.20;100.00
13420;BME280;6781;58.440;15.470;2023-04-22T08:22:22;100674.25;;;13.81;100.00
13420;BME280;6781;58.440;15.470;2023-04-22T08:24:52;100583.81;;;13.25;100.00
13420;BME280;6781;58.440;15.470;2023-04-22T08:27:20;100714.53;;;14.15;100.00
13420;BME280;6781;58.440;15.470;2023-04-22T08:29:49;100466.22;;;12.91;99.25
13420;BME280;6781;58.440;15.470;2023-04-22T08:32:19;100482.09;;;13.17;94.67
13420;BME280;6781;58.440;15.470;2023-04-22T08:34:47;100542.72;;;13.65;90.02
13420;BME280;6781;58.440;15.470;2023-04-22T08:37:14;100693.31;;;14.75;87.56
13420;BME280;6781;58.440;15.470;2023-04-22T08:39:43;100571.16;;;14.23;85.21
13420;BME280;6781;58.440;15.470;2023-04-22T08:42:14;100513.44;;;13.81;81.73
13420;BME280;6781;58.440;15.470;2023-04-22T08:44:42;100568.03;;;14.47;79.43
13420;BME280;6781;58.440;15.470;2023-04-22T08:47:12;100674.66;;;15.33;77.84
13420;BME280;6781;58.440;15.470;2023-04-22T08:49:40;100650.97;;;15.52;77.40
13420;BME280;6781;58.440;15.470;2023-04-22T08:52:07;100565.78;;;15.23;77.43
13420;BME280;6781;58.440;15.470;2023-04-22T08:54:37;100450.00;;;14.53;75.92
13420;BME280;6781;58.440;15.470;2023-04-22T08:57:04;100663.16;;;15.87;74.52
13420;BME280;6781;58.440;15.470;2023-04-22T08:59:35;100515.75;;;14.92;74.99
13420;BME280;6781;58.440;15.470;2023-04-22T09:02:04;100414.50;;;14.43;73.51
13420;BME280;6781;58.440;15.470;2023-04-22T09:04:35;100652.78;;;16.03;74.24
13420;BME280;6781;58.440;15.470;2023-04-22T09:07:02;100432.38;;;14.73;72.02
13420;BME280;6781;58.440;15.470;2023-04-22T09:09:30;100657.63;;;15.90;71.95
13420;BME280;6781;58.440;15.470;2023-04-22T09:11:57;100576.59;;;15.46;73.33
13420;BME280;6781;58.440;15.470;2023-04-22T09:14:28;100424.53;;;14.73;72.27
13420;BME280;6781;58.440;15.470;2023-04-22T09:16:58;100430.84;;;14.88;71.88
13420;BME280;6781;58.440;15.470;2023-04-22T09:19:32;100542.03;;;15.60;71.30
13420;BME280;6781;58.440;15.470;2023-04-22T09:22:12;100426.66;;;14.95;70.28
13420;BME280;6781;58.440;15.470;2023-04-22T09:24:42;100404.41;;;15.17;69.64
13420;BME280;6781;58.440;15.470;2023-04-22T09:27:12;100439.09;;;15.61;70.04
13420;BME280;6781;58.440;15.470;2023-04-22T09:29:49;100609.56;;;16.67;70.42
13420;BME280;6781;58.440;15.470;2023-04-22T09:32:17;100494.09;;;15.86;68.74
13420;BME280;6781;58.440;15.470;2023-04-22T09:34:48;100536.25;;;16.83;69.04
13420;BME280;6781;58.440;15.470;2023-04-22T09:37:25;100593.91;;;17.24;65.97
13420;BME280;6781;58.440;15.470;2023-04-22T09:39:53;100560.59;;;17.41;65.93
13420;BME280;6781;58.440;15.470;2023-04-22T09:42:24;100377.41;;;16.99;64.24
13420;BME280;6781;58.440;15.470;2023-04-22T09:45:04;100389.66;;;17.45;62.52
13420;BME280;6781;58.440;15.470;2023-04-22T09:47:34;100466.50;;;18.01;61.64
13420;BME280;6781;58.440;15.470;2023-04-22T09:50:03;100386.50;;;17.89;59.38
13420;BME280;6781;58.440;15.470;2023-04-22T09:52:32;100405.13;;;18.02;59.75
13420;BME280;6781;58.440;15.470;2023-04-22T09:55:08;100461.34;;;18.39;57.15
13420;BME280;6781;58.440;15.470;2023-04-22T09:57:38;100530.72;;;19.13;55.53
13420;BME280;6781;58.440;15.470;2023-04-22T10:00:11;100363.53;;;18.37;55.86
13420;BME280;6781;58.440;15.470;2023-04-22T10:02:41;100381.78;;;18.91;54.02
13420;BME280;6781;58.440;15.470;2023-04-22T10:05:11;100455.03;;;19.53;52.84
13420;BME280;6781;58.440;15.470;2023-04-22T10:07:41;100458.13;;;19.71;51.30
13420;BME280;6781;58.440;15.470;2023-04-22T10:10:08;100509.50;;;19.67;50.28
13420;BME280;6781;58.440;15.470;2023-04-22T10:12:37;100418.66;;;18.82;50.31
13420;BME280;6781;58.440;15.470;2023-04-22T10:15:06;100528.16;;;20.01;50.56
13420;BME280;6781;58.440;15.470;2023-04-22T10:17:40;100577.00;;;19.89;49.69
13420;BME280;6781;58.440;15.470;2023-04-22T10:20:11;100456.31;;;19.57;49.54
13420;BME280;6781;58.440;15.470;2023-04-22T10:22:41;100453.47;;;19.29;49.87
13420;BME280;6781;58.440;15.470;2023-04-22T10:25:12;100468.81;;;19.84;50.18
13420;BME280;6781;58.440;15.470;2023-04-22T10:27:52;100544.22;;;20.57;48.60
13420;BME280;6781;58.440;15.470;2023-04-22T10:30:26;100465.56;;;19.53;49.77
13420;BME280;6781;58.440;15.470;2023-04-22T10:32:53;100509.75;;;19.72;49.81
13420;BME280;6781;58.440;15.470;2023-04-22T10:35:26;100374.31;;;18.79;49.73
13420;BME280;6781;58.440;15.470;2023-04-22T10:37:57;100343.66;;;19.16;49.58
13420;BME280;6781;58.440;15.470;2023-04-22T10:40:24;100386.06;;;19.72;47.66
13420;BME280;6781;58.440;15.470;2023-04-22T10:42:52;100452.41;;;20.03;48.47
13420;BME280;6781;58.440;15.470;2023-04-22T10:45:24;100395.69;;;19.65;48.85
13420;BME280;6781;58.440;15.470;2023-04-22T10:47:51;100400.28;;;19.77;48.65
13420;BME280;6781;58.440;15.470;2023-04-22T10:50:22;100507.47;;;19.98;51.44
13420;BME280;6781;58.440;15.470;2023-04-22T10:52:53;100331.25;;;19.10;51.17
13420;BME280;6781;58.440;15.470;2023-04-22T10:55:23;100368.00;;;19.03;51.86
13420;BME280;6781;58.440;15.470;2023-04-22T10:57:51;100361.56;;;17.93;49.67
13420;BME280;6781;58.440;15.470;2023-04-22T11:00:39;100310.13;;;17.84;50.22
13420;BME280;6781;58.440;15.470;2023-04-22T11:03:12;100442.31;;;18.82;51.74
13420;BME280;6781;58.440;15.470;2023-04-22T11:05:39;100393.16;;;18.68;50.27
13420;BME280;6781;58.440;15.470;2023-04-22T11:08:27;100554.53;;;19.49;53.13
13420;BME280;6781;58.440;15.470;2023-04-22T11:11:07;100543.38;;;19.32;53.10
13420;BME280;6781;58.440;15.470;2023-04-22T11:13:34;100465.78;;;18.84;53.74
13420;BME280;6781;58.440;15.470;2023-04-22T11:16:07;100350.72;;;17.96;52.76
13420;BME280;6781;58.440;15.470;2023-04-22T11:18:47;100455.56;;;18.20;51.81
13420;BME280;6781;58.440;15.470;2023-04-22T11:21:19;100380.81;;;18.08;51.74
13420;BME280;6781;58.440;15.470;2023-04-22T11:23:49;100420.88;;;18.48;51.97
13420;BME280;6781;58.440;15.470;2023-04-22T11:26:31;100302.59;;;17.27;51.50
13420;BME280;6781;58.440;15.470;2023-04-22T11:29:24;100283.00;;;17.15;52.54
13420;BME280;6781;58.440;15.470;2023-04-22T11:32:00;100295.84;;;17.33;52.09
13420;BME280;6781;58.440;15.470;2023-04-22T11:34:32;100528.84;;;18.84;51.66
13420;BME280;6781;58.440;15.470;2023-04-22T11:36:59;100409.28;;;18.19;51.34
13420;BME280;6781;58.440;15.470;2023-04-22T11:39:34;100488.09;;;18.65;52.33
13420;BME280;6781;58.440;15.470;2023-04-22T11:42:04;100488.97;;;18.80;51.86
13420;BME280;6781;58.440;15.470;2023-04-22T11:44:31;100338.34;;;18.05;49.32
13420;BME280;6781;58.440;15.470;2023-04-22T11:47:00;100480.94;;;18.97;50.96
13420;BME280;6781;58.440;15.470;2023-04-22T11:49:27;100268.25;;;17.68;49.77
13420;BME280;6781;58.440;15.470;2023-04-22T11:51:58;100274.63;;;17.65;50.11
13420;BME280;6781;58.440;15.470;2023-04-22T11:54:32;100409.84;;;18.52;49.96
13420;BME280;6781;58.440;15.470;2023-04-22T11:57:03;100460.63;;;18.91;49.24
13420;BME280;6781;58.440;15.470;2023-04-22T11:59:32;100357.41;;;18.21;49.61
13420;BME280;6781;58.440;15.470;2023-04-22T12:02:03;100406.84;;;18.78;49.88
13420;BME280;6781;58.440;15.470;2023-04-22T12:04:35;100313.34;;;18.32;50.11
13420;BME280;6781;58.440;15.470;2023-04-22T12:07:02;100396.06;;;19.32;52.33
13420;BME280;6781;58.440;15.470;2023-04-22T12:09:32;100478.38;;;20.06;49.99
13420;BME280;6781;58.440;15.470;2023-04-22T12:12:05;100358.72;;;19.73;49.89
13420;BME280;6781;58.440;15.470;2023-04-22T12:14:33;100468.88;;;20.27;49.07
13420;BME280;6781;58.440;15.470;2023-04-22T12:17:08;100325.25;;;19.67;48.59
13420;BME280;6781;58.440;15.470;2023-04-22T12:19:37;100455.84;;;20.61;46.73
13420;BME280;6781;58.440;15.470;2023-04-22T12:22:08;100335.38;;;20.06;44.83
13420;BME280;6781;58.440;15.470;2023-04-22T12:24:43;100181.50;;;19.87;45.90
13420;BME280;6781;58.440;15.470;2023-04-22T12:27:13;100348.00;;;21.01;44.95
13420;BME280;6781;58.440;15.470;2023-04-22T12:29:49;100200.81;;;20.29;42.91
13420;BME280;6781;58.440;15.470;2023-04-22T12:32:19;100282.91;;;21.08;43.33
13420;BME280;6781;58.440;15.470;2023-04-22T12:34:53;100187.22;;;20.60;43.42
13420;BME280;6781;58.440;15.470;2023-04-22T12:37:24;100313.34;;;21.58;42.48
13420;BME280;6781;58.440;15.470;2023-04-22T12:39:56;100198.09;;;21.11;42.72
13420;BME280;6781;58.440;15.470;2023-04-22T12:42:26;100210.59;;;20.83;43.41
13420;BME280;6781;58.440;15.470;2023-04-22T12:44:57;100269.69;;;21.56;43.01
13420;BME280;6781;58.440;15.470;2023-04-22T12:47:24;100403.09;;;22.26;42.74
13420;BME280;6781;58.440;15.470;2023-04-22T12:49:51;100200.19;;;21.22;43.15
13420;BME280;6781;58.440;15.470;2023-04-22T12:52:38;100382.63;;;21.67;42.00
13420;BME280;6781;58.440;15.470;2023-04-22T12:55:10;100292.94;;;20.78;42.29
13420;BME280;6781;58.440;15.470;2023-04-22T12:57:48;100379.09;;;21.47;43.67
13420;BME280;6781;58.440;15.470;2023-04-22T13:00:17;100184.84;;;20.02;43.24
13420;BME280;6781;58.440;15.470;2023-04-22T13:02:48;100178.66;;;20.51;42.54
13420;BME280;6781;58.440;15.470;2023-04-22T13:05:19;100321.38;;;21.30;42.11
13420;BME280;6781;58.440;15.470;2023-04-22T13:07:49;100398.78;;;21.09;41.87